createdAt,value
2023-03-29T00:00:08.133Z,4.50
2023-03-29T00:02:35.808Z,5.80
2023-03-29T00:05:05.239Z,4.13
2023-03-29T00:07:33.891Z,5.97
2023-03-29T00:10:01.970Z,4.03
2023-03-29T00:12:29.852Z,3.37
2023-03-29T00:14:57.767Z,5.27
2023-03-29T00:17:25.380Z,4.23
2023-03-29T00:19:53.082Z,5.03
2023-03-29T00:22:22.290Z,3.87
2023-03-29T00:24:54.282Z,2.97
2023-03-29T00:27:22.164Z,3.10
2023-03-29T00:29:49.643Z,3.30
2023-03-29T00:32:17.222Z,4.90
2023-03-29T00:34:46.062Z,4.17
2023-03-29T00:37:14.742Z,2.67
2023-03-29T00:39:44.582Z,5.43
2023-03-29T00:42:13.733Z,4.00
2023-03-29T00:45:04.040Z,4.80
2023-03-29T00:47:37.489Z,3.97
2023-03-29T00:50:12.336Z,5.93
2023-03-29T00:52:42.268Z,3.23
2023-03-29T00:55:15.719Z,4.63
2023-03-29T00:57:46.403Z,4.77
2023-03-29T01:00:20.866Z,3.47
2023-03-29T01:02:54.104Z,3.40
2023-03-29T01:05:27.125Z,3.87
2023-03-29T01:07:59.705Z,4.37
2023-03-29T01:10:33.963Z,5.77
2023-03-29T01:13:09.405Z,3.53
2023-03-29T01:15:39.571Z,5.37
2023-03-29T01:18:07.373Z,3.27
2023-03-29T01:20:49.015Z,4.60
2023-03-29T01:23:46.921Z,3.80
2023-03-29T01:26:24.901Z,4.83
2023-03-29T01:28:59.472Z,5.67
2023-03-29T01:31:30.993Z,4.37
2023-03-29T01:34:04.305Z,3.47
2023-03-29T01:36:37.928Z,5.80
2023-03-29T01:39:07.419Z,3.00
2023-03-29T01:41:42.498Z,4.00
2023-03-29T01:44:16.475Z,3.73
2023-03-29T01:46:47.868Z,5.53
2023-03-29T01:49:22.813Z,3.27
2023-03-29T01:51:54.863Z,4.77
2023-03-29T01:54:28.056Z,6.20
2023-03-29T01:56:57.438Z,3.20
2023-03-29T01:59:29.352Z,5.23
2023-03-29T02:02:00.486Z,4.27
2023-03-29T02:04:31.619Z,4.13
2023-03-29T02:07:00.806Z,4.67
2023-03-29T02:09:30.187Z,3.67
2023-03-29T02:12:00.340Z,3.97
2023-03-29T02:14:30.372Z,5.50
2023-03-29T02:16:57.910Z,6.90
2023-03-29T02:19:27.907Z,5.40
2023-03-29T02:22:01.862Z,6.17
2023-03-29T02:24:32.853Z,4.73
2023-03-29T02:27:01.411Z,6.23
2023-03-29T02:29:30.586Z,4.57
2023-03-29T02:32:05.009Z,5.30
2023-03-29T02:34:37.511Z,4.87
2023-03-29T02:37:10.256Z,5.90
2023-03-29T02:39:39.484Z,4.10
2023-03-29T02:42:07.649Z,6.10
2023-03-29T02:44:42.534Z,5.43
2023-03-29T02:47:17.046Z,6.53
2023-03-29T02:49:45.008Z,6.60
2023-03-29T02:52:16.904Z,8.00
2023-03-29T02:54:46.553Z,6.43
2023-03-29T02:57:14.060Z,5.40
2023-03-29T02:59:44.079Z,6.03
2023-03-29T03:02:13.540Z,7.80
2023-03-29T03:04:41.370Z,6.07
2023-03-29T03:07:09.306Z,10.37
2023-03-29T03:09:36.907Z,7.70
2023-03-29T03:12:04.531Z,5.73
2023-03-29T03:14:32.000Z,7.20
2023-03-29T03:17:03.086Z,8.93
2023-03-29T03:19:32.260Z,9.90
2023-03-29T03:21:59.764Z,10.30
2023-03-29T03:24:27.978Z,10.10
2023-03-29T03:26:55.470Z,11.10
2023-03-29T03:29:23.220Z,9.37
2023-03-29T03:31:53.833Z,9.30
2023-03-29T03:34:23.808Z,10.40
2023-03-29T03:36:51.340Z,10.47
2023-03-29T03:39:18.862Z,10.73
2023-03-29T03:41:47.369Z,8.87
2023-03-29T03:44:14.862Z,13.80
2023-03-29T03:46:42.328Z,11.60
2023-03-29T03:49:09.843Z,13.00
2023-03-29T03:51:38.684Z,12.70
2023-03-29T03:54:06.753Z,20.93
2023-03-29T03:56:34.242Z,68.00
2023-03-29T03:59:02.063Z,59.23
2023-03-29T04:01:29.516Z,53.90
2023-03-29T04:03:57.038Z,37.03
2023-03-29T04:06:25.357Z,26.30
2023-03-29T04:08:54.223Z,14.60
2023-03-29T04:11:21.761Z,10.57
2023-03-29T04:13:49.767Z,13.90
2023-03-29T04:16:17.327Z,11.20
2023-03-29T04:18:44.922Z,17.90
2023-03-29T04:21:12.595Z,42.23
2023-03-29T04:23:40.138Z,48.63
2023-03-29T04:26:09.031Z,62.77
2023-03-29T04:28:36.552Z,57.20
2023-03-29T04:31:04.382Z,55.70
2023-03-29T04:33:32.234Z,71.10
2023-03-29T04:36:00.390Z,68.20
2023-03-29T04:38:27.983Z,82.23
2023-03-29T04:40:55.852Z,83.80
2023-03-29T04:43:24.852Z,76.00
2023-03-29T04:45:52.315Z,98.63
2023-03-29T04:48:19.897Z,80.50
2023-03-29T04:50:47.645Z,81.93
2023-03-29T04:53:15.242Z,98.60
2023-03-29T04:55:42.729Z,107.33
2023-03-29T04:58:10.203Z,97.80
2023-03-29T05:00:39.105Z,89.03
2023-03-29T05:03:07.431Z,90.53
2023-03-29T05:05:34.964Z,100.70
2023-03-29T05:08:03.225Z,83.20
2023-03-29T05:10:30.885Z,99.23
2023-03-29T05:12:58.336Z,87.03
2023-03-29T05:15:26.107Z,101.00
2023-03-29T05:17:54.924Z,34.67
2023-03-29T05:20:22.754Z,27.37
2023-03-29T05:22:50.210Z,14.67
2023-03-29T05:25:18.715Z,13.60
2023-03-29T05:27:46.636Z,29.37
2023-03-29T05:30:15.653Z,18.23
2023-03-29T05:32:43.269Z,22.77
2023-03-29T05:35:12.385Z,31.90
2023-03-29T05:37:39.974Z,116.37
2023-03-29T05:40:10.295Z,111.00
2023-03-29T05:42:38.575Z,51.43
2023-03-29T05:45:07.398Z,22.03
2023-03-29T05:47:34.868Z,17.20
2023-03-29T05:50:02.338Z,24.40
2023-03-29T05:52:31.513Z,29.93
2023-03-29T05:54:58.977Z,19.43
2023-03-29T05:57:27.819Z,12.83
2023-03-29T05:59:56.412Z,16.70
2023-03-29T06:02:25.583Z,14.13
2023-03-29T06:04:53.894Z,12.60
2023-03-29T06:07:23.318Z,14.87
2023-03-29T06:09:52.161Z,12.63
2023-03-29T06:12:21.782Z,14.43
2023-03-29T06:14:49.276Z,14.00
2023-03-29T06:17:17.417Z,13.13
2023-03-29T06:19:45.243Z,16.17
2023-03-29T06:22:14.827Z,12.97
2023-03-29T06:24:42.449Z,14.23
2023-03-29T06:27:11.259Z,14.17
2023-03-29T06:29:38.753Z,15.87
2023-03-29T06:32:06.637Z,16.73
2023-03-29T06:34:36.061Z,16.97
2023-03-29T06:37:05.820Z,14.43
2023-03-29T06:39:33.577Z,15.77
2023-03-29T06:42:07.347Z,15.97
2023-03-29T06:44:42.093Z,15.40
2023-03-29T06:47:09.574Z,17.00
2023-03-29T06:49:37.095Z,14.90
2023-03-29T06:52:04.892Z,14.60
2023-03-29T06:54:33.477Z,16.23
2023-03-29T06:57:01.340Z,15.40
2023-03-29T06:59:28.868Z,12.80
2023-03-29T07:01:58.430Z,18.00
2023-03-29T07:04:26.083Z,14.17
2023-03-29T07:07:01.410Z,14.13
2023-03-29T07:09:30.762Z,15.70
2023-03-29T07:11:58.747Z,19.90
2023-03-29T07:14:28.807Z,17.67
2023-03-29T07:16:59.292Z,16.17
2023-03-29T07:19:28.664Z,15.40
2023-03-29T07:21:57.016Z,14.67
2023-03-29T07:24:24.476Z,15.37
2023-03-29T07:27:03.321Z,14.70
2023-03-29T07:29:32.078Z,15.37
2023-03-29T07:32:00.870Z,14.63
2023-03-29T07:34:30.012Z,14.50
2023-03-29T07:36:57.692Z,13.17
2023-03-29T07:39:26.109Z,13.90
2023-03-29T07:41:53.587Z,11.33
2023-03-29T07:44:21.543Z,27.90
2023-03-29T07:46:49.473Z,21.20
2023-03-29T07:49:19.809Z,16.07
2023-03-29T07:51:49.206Z,15.73
2023-03-29T07:54:16.848Z,22.00
2023-03-29T07:56:44.463Z,14.20
2023-03-29T07:59:11.958Z,15.90
2023-03-29T08:01:40.823Z,12.97
2023-03-29T08:04:09.585Z,14.67
2023-03-29T08:06:38.586Z,14.17
2023-03-29T08:09:06.197Z,13.13
2023-03-29T08:11:33.686Z,11.57
2023-03-29T08:14:01.152Z,11.73
2023-03-29T08:16:28.682Z,11.63
2023-03-29T08:18:56.196Z,11.90
2023-03-29T08:21:23.691Z,12.77
2023-03-29T08:23:52.545Z,12.20
2023-03-29T08:26:20.156Z,14.13
2023-03-29T08:28:47.656Z,14.13
2023-03-29T08:31:16.581Z,18.87
2023-03-29T08:33:44.392Z,20.57
2023-03-29T08:36:12.382Z,24.57
2023-03-29T08:38:39.886Z,21.17
2023-03-29T08:41:27.152Z,18.17
2023-03-29T08:44:07.910Z,11.67
2023-03-29T08:46:45.087Z,14.40
2023-03-29T08:49:13.320Z,20.77
2023-03-29T08:51:45.316Z,18.60
2023-03-29T08:54:18.097Z,22.37
2023-03-29T08:56:47.841Z,111.00
2023-03-29T08:59:20.888Z,70.40
2023-03-29T09:01:51.027Z,11.60
2023-03-29T09:04:22.754Z,38.93
2023-03-29T09:06:50.678Z,7.05
2023-03-29T09:09:20.710Z,10.27
2023-03-29T09:12:02.681Z,6.63
2023-03-29T09:14:41.875Z,10.52
2023-03-29T09:17:21.449Z,10.25
2023-03-29T09:19:55.963Z,10.73
2023-03-29T09:22:30.322Z,6.93
2023-03-29T09:25:10.014Z,6.78
2023-03-29T09:27:48.920Z,7.22
2023-03-29T09:30:25.859Z,11.18
2023-03-29T09:32:54.805Z,7.18
2023-03-29T09:35:26.096Z,5.95
2023-03-29T09:37:55.189Z,6.47
2023-03-29T09:40:27.648Z,5.35
2023-03-29T09:42:57.973Z,5.25
2023-03-29T09:45:25.795Z,6.40
2023-03-29T09:47:57.674Z,5.75
2023-03-29T09:50:31.962Z,7.82
2023-03-29T09:52:59.806Z,7.82
2023-03-29T09:55:30.211Z,7.35
2023-03-29T09:58:02.627Z,9.05
2023-03-29T10:00:30.171Z,10.90
2023-03-29T10:03:00.024Z,10.43
2023-03-29T10:05:37.692Z,10.82
2023-03-29T10:08:19.820Z,10.57
2023-03-29T10:10:48.392Z,8.43
2023-03-29T10:13:23.066Z,7.28
2023-03-29T10:16:09.876Z,6.93
2023-03-29T10:18:42.556Z,6.88
2023-03-29T10:21:14.388Z,6.75
2023-03-29T10:23:42.581Z,8.43
2023-03-29T10:26:15.662Z,6.47
2023-03-29T10:28:44.705Z,8.95
2023-03-29T10:31:19.134Z,7.72
2023-03-29T10:33:53.148Z,6.45
2023-03-29T10:36:20.954Z,9.02
2023-03-29T10:38:49.046Z,11.63
2023-03-29T10:41:18.468Z,6.35
2023-03-29T10:43:50.812Z,6.90
2023-03-29T10:46:23.453Z,9.45
2023-03-29T10:48:52.836Z,11.25
2023-03-29T10:51:20.581Z,10.20
2023-03-29T10:53:48.204Z,4.80
2023-03-29T10:56:34.983Z,3.88
2023-03-29T10:59:17.838Z,6.25
2023-03-29T11:01:58.807Z,3.33
2023-03-29T11:04:37.259Z,3.95
2023-03-29T11:07:27.140Z,3.38
2023-03-29T11:10:11.714Z,3.95
2023-03-29T11:12:45.258Z,5.28
2023-03-29T11:15:30.118Z,3.67
2023-03-29T11:18:18.667Z,3.78
2023-03-29T11:20:55.178Z,3.80
2023-03-29T11:23:37.490Z,4.15
2023-03-29T11:26:13.938Z,4.50
2023-03-29T11:28:49.709Z,4.95
2023-03-29T11:31:39.090Z,3.95
2023-03-29T11:34:27.462Z,6.72
2023-03-29T11:37:02.553Z,3.58
2023-03-29T11:39:41.619Z,3.00
2023-03-29T11:42:16.574Z,4.97
2023-03-29T11:44:47.168Z,4.18
2023-03-29T11:47:19.612Z,6.32
2023-03-29T11:49:51.750Z,5.63
2023-03-29T11:52:24.483Z,5.45
2023-03-29T11:54:58.322Z,3.40
2023-03-29T11:57:29.943Z,2.85
2023-03-29T12:00:05.129Z,3.58
2023-03-29T12:02:39.366Z,4.32
2023-03-29T12:05:14.409Z,3.58
2023-03-29T12:07:46.743Z,3.20
2023-03-29T12:10:20.350Z,4.53
2023-03-29T12:12:53.857Z,2.80
2023-03-29T12:15:24.850Z,3.25
2023-03-29T12:18:03.532Z,4.65
2023-03-29T12:20:34.601Z,4.32
2023-03-29T12:23:02.676Z,3.45
2023-03-29T12:25:35.509Z,7.13
2023-03-29T12:28:17.169Z,3.65
2023-03-29T12:30:55.333Z,7.22
2023-03-29T12:33:41.789Z,7.28
2023-03-29T12:36:20.328Z,3.90
2023-03-29T12:38:52.338Z,3.20
2023-03-29T12:41:21.893Z,6.28
2023-03-29T12:43:50.374Z,2.97
2023-03-29T12:46:20.209Z,3.67
2023-03-29T12:48:52.067Z,4.40
2023-03-29T12:51:22.787Z,3.22
2023-03-29T12:53:53.293Z,3.00
2023-03-29T12:56:23.674Z,4.05
2023-03-29T12:58:56.365Z,4.00
2023-03-29T13:01:28.264Z,7.32
2023-03-29T13:04:16.808Z,3.40
2023-03-29T13:07:05.968Z,3.03
2023-03-29T13:09:36.707Z,5.60
2023-03-29T13:12:14.449Z,4.05
2023-03-29T13:14:44.982Z,3.08
2023-03-29T13:17:25.520Z,3.53
2023-03-29T13:20:09.233Z,3.00
2023-03-29T13:22:48.266Z,3.67
2023-03-29T13:25:29.742Z,3.13
2023-03-29T13:28:04.422Z,3.50
2023-03-29T13:30:45.392Z,3.50
2023-03-29T13:33:31.451Z,3.42
2023-03-29T13:36:07.475Z,3.72
2023-03-29T13:38:46.413Z,3.47
2023-03-29T13:41:28.674Z,2.40
2023-03-29T13:43:57.558Z,3.30
2023-03-29T13:46:36.332Z,3.45
2023-03-29T13:49:16.293Z,6.80
2023-03-29T13:52:05.458Z,2.78
2023-03-29T13:54:37.040Z,6.13
2023-03-29T13:57:09.802Z,6.00
2023-03-29T13:59:44.046Z,5.95
2023-03-29T14:02:20.982Z,3.85
2023-03-29T14:04:52.081Z,21.25
2023-03-29T14:07:26.118Z,22.35
2023-03-29T14:09:56.097Z,26.92
2023-03-29T14:12:23.679Z,31.42
2023-03-29T14:15:03.543Z,47.53
2023-03-29T14:17:31.645Z,54.50
2023-03-29T14:20:01.480Z,48.50
2023-03-29T14:22:34.547Z,36.65
2023-03-29T14:25:06.185Z,27.33
2023-03-29T14:27:37.038Z,16.77
2023-03-29T14:30:20.074Z,10.20
2023-03-29T14:32:49.777Z,6.43
2023-03-29T14:35:17.498Z,5.88
2023-03-29T14:37:48.901Z,9.70
2023-03-29T14:40:19.813Z,6.55
2023-03-29T14:42:49.021Z,3.92
2023-03-29T14:45:19.454Z,5.80
2023-03-29T14:47:47.970Z,5.50
2023-03-29T14:50:22.358Z,5.40
2023-03-29T14:52:52.610Z,4.15
2023-03-29T14:55:23.675Z,4.55
2023-03-29T14:57:52.683Z,4.65
2023-03-29T15:00:26.819Z,6.07
2023-03-29T15:02:57.711Z,5.15
2023-03-29T15:05:32.909Z,4.82
2023-03-29T15:08:03.672Z,6.55
2023-03-29T15:10:34.246Z,8.60
2023-03-29T15:13:03.455Z,6.55
2023-03-29T15:15:34.543Z,4.95
2023-03-29T15:18:03.546Z,5.60
2023-03-29T15:20:34.728Z,6.18
2023-03-29T15:23:05.372Z,7.28
2023-03-29T15:25:37.207Z,5.65
2023-03-29T15:28:05.321Z,5.47
2023-03-29T15:30:35.363Z,5.97
2023-03-29T15:33:16.325Z,5.93
2023-03-29T15:35:50.413Z,7.10
2023-03-29T15:38:23.367Z,6.07
2023-03-29T15:40:55.439Z,7.18
2023-03-29T15:43:23.552Z,6.22
2023-03-29T15:45:51.132Z,6.47
2023-03-29T15:48:21.456Z,7.85
2023-03-29T15:50:49.027Z,6.25
2023-03-29T15:53:18.474Z,6.28
2023-03-29T15:55:50.913Z,7.55
2023-03-29T15:58:21.370Z,6.07
2023-03-29T16:00:54.731Z,5.82
2023-03-29T16:03:24.471Z,6.88
2023-03-29T16:05:54.121Z,6.40
2023-03-29T16:08:21.614Z,7.97
2023-03-29T16:10:50.426Z,8.13
2023-03-29T16:13:17.886Z,7.20
2023-03-29T16:15:45.539Z,7.60
2023-03-29T16:18:13.301Z,7.68
2023-03-29T16:20:41.500Z,8.38
2023-03-29T16:23:09.706Z,9.05
2023-03-29T16:25:39.834Z,10.50
2023-03-29T16:28:09.998Z,7.70
2023-03-29T16:30:38.469Z,9.13
2023-03-29T16:33:08.465Z,9.10
2023-03-29T16:35:38.469Z,10.45
2023-03-29T16:38:06.351Z,8.80
2023-03-29T16:40:34.276Z,9.30
2023-03-29T16:43:02.657Z,8.88
2023-03-29T16:45:31.741Z,9.57
2023-03-29T16:47:59.357Z,9.18
2023-03-29T16:50:27.029Z,9.57
2023-03-29T16:52:54.563Z,9.45
2023-03-29T16:55:22.046Z,9.30
2023-03-29T16:57:50.869Z,9.68
2023-03-29T17:00:20.190Z,9.20
2023-03-29T17:02:50.498Z,8.05
2023-03-29T17:05:18.877Z,8.25
2023-03-29T17:07:46.840Z,8.65
2023-03-29T17:10:15.440Z,9.70
2023-03-29T17:12:42.928Z,9.82
2023-03-29T17:15:11.281Z,9.57
2023-03-29T17:17:38.894Z,9.35
2023-03-29T17:20:11.888Z,9.27
2023-03-29T17:22:39.520Z,9.02
2023-03-29T17:25:08.492Z,10.20
2023-03-29T17:27:37.297Z,11.02
2023-03-29T17:30:05.550Z,11.68
2023-03-29T17:32:33.325Z,11.00
2023-03-29T17:35:00.862Z,16.65
2023-03-29T17:37:30.129Z,16.75
2023-03-29T17:39:57.606Z,17.27
2023-03-29T17:42:25.261Z,17.40
2023-03-29T17:44:52.743Z,16.27
2023-03-29T17:47:20.592Z,27.45
2023-03-29T17:49:48.078Z,22.73
2023-03-29T17:52:15.550Z,45.55
2023-03-29T17:54:44.422Z,30.30
2023-03-29T17:57:12.059Z,26.13
2023-03-29T17:59:39.682Z,27.20
2023-03-29T18:02:07.700Z,20.83
2023-03-29T18:04:35.555Z,25.07
2023-03-29T18:07:03.028Z,22.80
2023-03-29T18:09:31.136Z,18.27
2023-03-29T18:12:00.031Z,14.77
2023-03-29T18:14:27.512Z,14.13
2023-03-29T18:16:55.743Z,12.23
2023-03-29T18:19:23.455Z,17.37
2023-03-29T18:21:51.025Z,106.17
2023-03-29T18:24:18.553Z,74.07
2023-03-29T18:26:46.043Z,33.23
2023-03-29T18:29:15.434Z,25.83
2023-03-29T18:31:43.519Z,29.27
2023-03-29T18:34:11.112Z,147.70
2023-03-29T18:36:38.708Z,131.10
2023-03-29T18:39:06.315Z,110.80
2023-03-29T18:41:35.536Z,78.67
2023-03-29T18:44:03.024Z,102.10
2023-03-29T18:46:33.110Z,89.70
2023-03-29T18:49:02.041Z,102.73
2023-03-29T18:51:29.642Z,111.77
2023-03-29T18:53:57.345Z,101.67
2023-03-29T18:56:24.822Z,83.53
2023-03-29T18:58:52.374Z,65.47
2023-03-29T19:01:19.906Z,52.13
2023-03-29T19:03:49.083Z,41.90
2023-03-29T19:06:16.810Z,37.23
2023-03-29T19:08:44.329Z,40.47
2023-03-29T19:11:14.178Z,41.83
2023-03-29T19:13:42.238Z,33.37
2023-03-29T19:16:10.266Z,98.30
2023-03-29T19:18:37.796Z,29.53
2023-03-29T19:21:06.903Z,27.93
2023-03-29T19:23:34.453Z,17.67
2023-03-29T19:26:03.689Z,16.73
2023-03-29T19:28:32.087Z,15.73
2023-03-29T19:31:01.515Z,17.17
2023-03-29T19:33:29.317Z,16.07
2023-03-29T19:35:57.173Z,21.50
2023-03-29T19:38:26.264Z,27.33
2023-03-29T19:40:53.775Z,26.87
2023-03-29T19:43:21.433Z,22.33
2023-03-29T19:45:50.727Z,23.37
2023-03-29T19:48:23.420Z,18.60
2023-03-29T19:50:51.396Z,21.27
2023-03-29T19:53:19.008Z,18.03
2023-03-29T19:55:48.646Z,24.20
2023-03-29T19:58:16.128Z,22.47
2023-03-29T20:00:43.603Z,22.80
2023-03-29T20:03:11.244Z,20.47
2023-03-29T20:05:39.708Z,16.53
2023-03-29T20:08:07.485Z,22.07
2023-03-29T20:10:36.796Z,21.05
2023-03-29T20:13:06.483Z,27.23
2023-03-29T20:15:36.011Z,25.97
2023-03-29T20:18:03.573Z,32.10
2023-03-29T20:20:31.674Z,29.83
2023-03-29T20:23:04.516Z,31.67
2023-03-29T20:25:33.040Z,29.27
2023-03-29T20:28:00.598Z,30.23
2023-03-29T20:30:29.675Z,30.07
2023-03-29T20:32:57.453Z,24.33
2023-03-29T20:35:25.545Z,20.10
2023-03-29T20:37:53.018Z,22.83
2023-03-29T20:40:20.751Z,25.73
2023-03-29T20:42:48.865Z,27.47
2023-03-29T20:45:19.259Z,31.73
2023-03-29T20:47:55.873Z,19.60
2023-03-29T20:50:30.074Z,20.57
2023-03-29T20:53:02.043Z,20.30
2023-03-29T20:55:30.358Z,19.50
2023-03-29T20:58:00.662Z,20.90
2023-03-29T21:00:31.444Z,18.80
2023-03-29T21:03:00.526Z,18.97
2023-03-29T21:05:29.589Z,21.60
2023-03-29T21:07:57.330Z,24.37
2023-03-29T21:10:26.318Z,26.53
2023-03-29T21:12:55.066Z,35.37
2023-03-29T21:15:22.584Z,32.30
2023-03-29T21:17:50.129Z,37.00
2023-03-29T21:20:19.816Z,31.00
2023-03-29T21:22:47.323Z,30.97
2023-03-29T21:25:15.787Z,32.30
2023-03-29T21:27:43.728Z,30.77
2023-03-29T21:30:11.852Z,30.37
2023-03-29T21:32:39.420Z,34.00
2023-03-29T21:35:07.970Z,36.30
2023-03-29T21:37:36.805Z,36.20
2023-03-29T21:40:06.440Z,34.73
2023-03-29T21:42:34.900Z,36.33
2023-03-29T21:45:02.615Z,35.13
2023-03-29T21:47:30.912Z,32.97
2023-03-29T21:49:58.431Z,31.53
2023-03-29T21:52:26.046Z,32.07
2023-03-29T21:54:54.890Z,35.73
2023-03-29T21:57:22.400Z,32.53
2023-03-29T21:59:49.994Z,28.00
2023-03-29T22:02:17.490Z,26.70
2023-03-29T22:04:45.163Z,26.97
2023-03-29T22:07:12.636Z,25.20
2023-03-29T22:09:42.204Z,26.43
2023-03-29T22:12:11.988Z,29.97
2023-03-29T22:14:39.508Z,35.03
2023-03-29T22:17:07.063Z,31.80
2023-03-29T22:19:38.755Z,33.37
2023-03-29T22:22:07.238Z,36.40
2023-03-29T22:24:34.752Z,35.00
2023-03-29T22:27:02.548Z,35.37
2023-03-29T22:29:31.402Z,34.93
2023-03-29T22:31:58.913Z,44.87
2023-03-29T22:34:26.483Z,35.10
2023-03-29T22:36:54.002Z,44.57
2023-03-29T22:39:21.476Z,69.43
2023-03-29T22:41:48.939Z,83.00
2023-03-29T22:44:16.416Z,64.90
2023-03-29T22:46:45.477Z,80.77
2023-03-29T22:49:13.160Z,89.67
2023-03-29T22:51:40.646Z,43.97
2023-03-29T22:54:08.688Z,38.30
2023-03-29T22:56:36.244Z,37.30
2023-03-29T22:59:03.748Z,38.47
2023-03-29T23:01:31.294Z,39.93
2023-03-29T23:04:00.227Z,44.77
2023-03-29T23:06:27.806Z,31.80
2023-03-29T23:08:55.390Z,31.53
2023-03-29T23:11:22.948Z,34.07
2023-03-29T23:13:52.444Z,37.33
2023-03-29T23:16:20.708Z,39.43
2023-03-29T23:18:48.433Z,34.87
2023-03-29T23:21:17.557Z,35.10
2023-03-29T23:23:45.045Z,28.47
2023-03-29T23:26:12.605Z,29.80
2023-03-29T23:28:41.029Z,27.37
2023-03-29T23:31:10.687Z,28.30
2023-03-29T23:33:40.330Z,32.03
2023-03-29T23:36:10.732Z,31.23
2023-03-29T23:38:40.667Z,34.33
2023-03-29T23:41:10.799Z,30.77
2023-03-29T23:43:40.286Z,30.63
2023-03-29T23:46:09.629Z,31.30
2023-03-29T23:48:37.949Z,30.70
2023-03-29T23:51:07.737Z,32.10
2023-03-29T23:53:35.301Z,32.73
2023-03-29T23:56:06.146Z,32.20
2023-03-29T23:58:36.765Z,32.93
